Time;durP1;ratioP1;P1;durP2;ratioP2;P2;SDS_P1;SDS_P2;PMS_P1;PMS_P2;Temp;Humidity;BMP_temperature;BMP_pressure;BME280_temperature;BME280_humidity;BME280_pressure;Samples;Min_cycle;Max_cycle;Signal;HPM_P1;HPM_P2
2021/11/13 00:04:36;;;;;;;27.38;17.48;;;;;;;2.42;100.00;98201.63;10435219;28;20059;-60
2021/11/13 00:09:42;;;;;;;31.45;19.15;;;;;;;2.37;100.00;98210.91;10438937;28;20052;-59
2021/11/13 00:14:46;;;;;;;31.15;18.02;;;;;;;2.35;100.00;98194.25;10437032;28;20052;-56
2021/11/13 00:19:49;;;;;;;29.98;18.75;;;;;;;2.30;100.00;98191.91;10419989;28;21431;-60
2021/11/13 00:24:54;;;;;;;29.23;19.00;;;;;;;2.28;100.00;98194.69;10437366;28;20572;-61
2021/11/13 00:29:57;;;;;;;30.17;18.73;;;;;;;2.27;100.00;98182.38;10431141;28;20076;-59
2021/11/13 00:35:00;;;;;;;30.30;19.40;;;;;;;2.26;100.00;98185.16;10429891;28;20549;-58
2021/11/13 00:40:07;;;;;;;28.95;18.02;;;;;;;2.26;100.00;98182.50;10434132;28;20599;-56
2021/11/13 00:45:11;;;;;;;32.15;19.05;;;;;;;2.21;100.00;98182.84;10432879;28;20884;-60
2021/11/13 00:50:14;;;;;;;28.65;18.05;;;;;;;2.19;100.00;98178.56;10439437;28;20055;-58
2021/11/13 00:55:20;;;;;;;29.13;18.30;;;;;;;2.15;100.00;98184.16;10431160;28;20072;-57
2021/11/13 01:00:23;;;;;;;27.83;17.38;;;;;;;2.12;100.00;98173.72;10409509;28;20049;-58
2021/11/13 01:05:27;;;;;;;30.65;18.75;;;;;;;2.09;100.00;98179.25;10432347;28;20059;-59
2021/11/13 01:10:31;;;;;;;30.85;18.23;;;;;;;2.07;100.00;98183.00;10424739;28;20041;-59
2021/11/13 01:15:34;;;;;;;31.13;18.70;;;;;;;2.07;100.00;98190.97;10437949;28;20564;-59
2021/11/13 01:20:37;;;;;;;29.38;18.85;;;;;;;2.06;100.00;98190.13;10437584;28;20057;-57
2021/11/13 01:25:42;;;;;;;31.05;18.58;;;;;;;2.06;100.00;98176.81;10418698;28;20059;-59
2021/11/13 01:30:48;;;;;;;31.13;19.00;;;;;;;2.07;100.00;98180.34;10437333;28;20076;-59
2021/11/13 01:35:51;;;;;;;30.10;18.55;;;;;;;2.08;100.00;98179.38;10439044;28;20415;-59
2021/11/13 01:40:56;;;;;;;28.95;18.02;;;;;;;2.08;100.00;98166.94;10420801;28;20151;-60
2021/11/13 01:46:00;;;;;;;28.27;17.70;;;;;;;2.09;100.00;98165.97;10449431;28;20049;-58
2021/11/13 01:51:14;;;;;;;24.90;16.10;;;;;;;2.15;100.00;98162.03;10444491;28;20045;-59
2021/11/13 01:56:20;;;;;;;22.58;15.70;;;;;;;2.18;100.00;98150.31;10437804;28;20087;-59
2021/11/13 02:01:23;;;;;;;26.58;16.20;;;;;;;2.18;100.00;98151.16;10446614;28;20463;-59
2021/11/13 02:06:27;;;;;;;24.77;16.17;;;;;;;2.21;100.00;98148.28;10437715;28;20517;-56
2021/11/13 02:11:32;;;;;;;22.50;15.38;;;;;;;2.23;100.00;98146.38;10439137;28;20041;-60
2021/11/13 02:16:35;;;;;;;24.45;15.32;;;;;;;2.24;100.00;98145.38;10440390;28;20052;-60
2021/11/13 02:21:42;;;;;;;23.05;14.68;;;;;;;2.29;100.00;98150.38;10419069;28;20077;-58
2021/11/13 02:26:45;;;;;;;21.25;14.50;;;;;;;2.31;100.00;98146.63;10442196;28;20114;-58
2021/11/13 02:31:49;;;;;;;21.50;13.85;;;;;;;2.33;100.00;98149.16;10428711;28;20489;-60
2021/11/13 02:37:02;;;;;;;20.33;12.57;;;;;;;2.36;100.00;98145.41;10432035;28;20474;-59
2021/11/13 02:42:06;;;;;;;17.67;11.80;;;;;;;2.38;100.00;98143.50;10424288;28;20053;-59
2021/11/13 02:47:10;;;;;;;18.38;12.70;;;;;;;2.38;100.00;98144.34;10433846;28;20042;-59
2021/11/13 02:52:15;;;;;;;16.92;11.50;;;;;;;2.42;100.00;98143.13;10418177;28;20045;-60
2021/11/13 02:57:18;;;;;;;16.08;11.10;;;;;;;2.43;100.00;98128.88;10427035;28;20429;-60
2021/11/13 03:02:21;;;;;;;16.63;11.55;;;;;;;2.47;100.00;98140.13;10418442;28;20042;-59
2021/11/13 03:07:25;;;;;;;16.10;10.00;;;;;;;2.50;100.00;98125.78;10443028;28;20059;-59
2021/11/13 03:12:28;;;;;;;15.75;10.38;;;;;;;2.53;100.00;98130.88;10443229;28;20421;-59
2021/11/13 03:17:31;;;;;;;16.73;10.55;;;;;;;2.56;100.00;98118.16;10434774;28;20061;-60
2021/11/13 03:22:38;;;;;;;15.38;10.07;;;;;;;2.60;100.00;98122.28;10438759;28;20045;-59
2021/11/13 03:27:44;;;;;;;13.90;9.57;;;;;;;2.61;100.00;98120.47;10437921;28;20343;-58
2021/11/13 03:32:47;;;;;;;17.77;10.43;;;;;;;2.63;100.00;98115.88;10436197;28;20104;-58
2021/11/13 03:37:54;;;;;;;13.38;9.40;;;;;;;2.67;100.00;98113.81;10438096;28;20060;-58
2021/11/13 03:42:57;;;;;;;12.68;9.45;;;;;;;2.70;100.00;98109.13;10431751;28;20047;-60
2021/11/13 03:48:00;;;;;;;11.98;8.77;;;;;;;2.73;100.00;98103.56;10431664;28;20469;-56
2021/11/13 03:53:06;;;;;;;10.55;8.25;;;;;;;2.80;100.00;98105.72;10420905;28;20041;-57
2021/11/13 03:58:10;;;;;;;10.27;7.57;;;;;;;2.85;100.00;98090.25;10436159;28;20132;-59
2021/11/13 04:03:13;;;;;;;12.45;8.40;;;;;;;2.87;100.00;98085.69;10431059;28;20055;-59
2021/11/13 04:08:18;;;;;;;11.20;8.18;;;;;;;2.88;100.00;98090.03;10434181;28;20494;-55
2021/11/13 04:13:22;;;;;;;12.05;8.38;;;;;;;2.89;100.00;98091.69;10424610;28;20037;-58
2021/11/13 04:18:25;;;;;;;11.88;8.07;;;;;;;2.89;100.00;98081.06;10437758;28;20045;-58
2021/11/13 04:23:30;;;;;;;12.93;8.02;;;;;;;2.92;100.00;98083.47;10417746;28;20493;-59
2021/11/13 04:28:33;;;;;;;13.05;9.05;;;;;;;2.92;100.00;98072.84;10433871;28;20051;-55
2021/11/13 04:33:36;;;;;;;11.35;7.88;;;;;;;2.91;100.00;98071.16;10436043;28;20489;-59
2021/11/13 04:38:41;;;;;;;10.88;8.32;;;;;;;2.91;100.00;98068.47;10435120;28;20049;-56
2021/11/13 04:43:44;;;;;;;12.90;9.05;;;;;;;2.93;100.00;98071.88;10421135;28;20498;-58
2021/11/13 04:48:47;;;;;;;12.45;9.00;;;;;;;2.98;100.00;98079.50;10429148;28;20047;-59
2021/11/13 04:53:52;;;;;;;12.43;8.32;;;;;;;3.01;100.00;98082.75;10395076;28;20059;-58
2021/11/13 04:58:55;;;;;;;12.38;9.20;;;;;;;3.02;100.00;98089.75;10439338;28;20060;-59
2021/11/13 05:03:58;;;;;;;13.32;8.80;;;;;;;3.06;100.00;98082.38;10438083;28;20045;-59
2021/11/13 05:09:02;;;;;;;12.90;8.63;;;;;;;3.10;100.00;98080.34;10419748;28;20057;-59
2021/11/13 05:14:06;;;;;;;16.70;9.90;;;;;;;3.13;100.00;98088.06;10434760;28;20057;-56
2021/11/13 05:19:09;;;;;;;11.85;8.85;;;;;;;3.14;100.00;98095.94;10432257;28;20055;-59
2021/11/13 05:24:13;;;;;;;11.20;8.25;;;;;;;3.18;100.00;98115.16;10431079;28;20041;-59
2021/11/13 05:29:16;;;;;;;12.60;9.02;;;;;;;3.20;100.00;98115.91;10437655;28;20476;-59
2021/11/13 05:34:19;;;;;;;13.27;9.35;;;;;;;3.22;100.00;98119.28;10436530;28;20037;-59
2021/11/13 05:39:29;;;;;;;13.52;9.40;;;;;;;3.24;100.00;98123.53;10436008;28;20052;-58
2021/11/13 05:44:33;;;;;;;12.32;9.32;;;;;;;3.28;100.00;98120.63;10434883;28;20124;-58
2021/11/13 05:49:36;;;;;;;14.50;9.40;;;;;;;3.30;100.00;98122.19;10432901;28;20056;-57
2021/11/13 05:54:42;;;;;;;12.75;9.32;;;;;;;3.32;100.00;98125.56;10429402;28;20128;-58
2021/11/13 05:59:46;;;;;;;13.20;9.35;;;;;;;3.37;100.00;98127.88;10437117;28;20832;-56
2021/11/13 06:04:49;;;;;;;13.43;9.13;;;;;;;3.38;100.00;98132.22;10432450;28;20949;-57
2021/11/13 06:09:54;;;;;;;12.18;9.05;;;;;;;3.39;100.00;98124.09;10428780;28;20053;-57
2021/11/13 06:14:57;;;;;;;12.48;9.45;;;;;;;3.42;100.00;98135.47;10438830;28;20043;-55
2021/11/13 06:20:00;;;;;;;14.13;9.30;;;;;;;3.43;100.00;98143.34;10441584;28;20048;-54
2021/11/13 06:25:06;;;;;;;12.82;9.18;;;;;;;3.46;100.00;98142.28;10450066;28;20132;-57
2021/11/13 06:30:17;;;;;;;12.02;9.13;;;;;;;3.49;100.00;98153.50;10454312;28;20021;-55
2021/11/13 06:35:20;;;;;;;12.90;9.67;;;;;;;3.50;100.00;98147.22;10489602;28;20036;-55
2021/11/13 06:40:25;;;;;;;13.50;9.55;;;;;;;3.54;100.00;98145.97;10487743;28;20025;-53
2021/11/13 06:45:34;;;;;;;11.80;9.00;;;;;;;3.58;100.00;98161.72;10473187;28;20037;-58
2021/11/13 06:50:38;;;;;;;13.90;9.43;;;;;;;3.58;100.00;98175.91;10437777;28;20052;-56
2021/11/13 06:55:42;;;;;;;12.68;9.35;;;;;;;3.58;100.00;98181.25;10439193;28;20053;-59
2021/11/13 07:00:46;;;;;;;13.38;9.70;;;;;;;3.59;100.00;98185.56;10432935;28;20072;-55
2021/11/13 07:05:50;;;;;;;14.50;10.80;;;;;;;3.59;100.00;98188.22;10438001;28;20349;-56
2021/11/13 07:10:55;;;;;;;15.13;10.13;;;;;;;3.59;100.00;98190.91;10437672;28;20060;-52
2021/11/13 07:15:59;;;;;;;18.02;11.70;;;;;;;3.61;100.00;98188.13;10437710;28;20141;-60
2021/11/13 07:21:05;;;;;;;15.40;10.32;;;;;;;3.62;100.00;98200.47;10438050;28;20124;-51
2021/11/13 07:26:12;;;;;;;14.18;10.15;;;;;;;3.62;100.00;98201.31;10417681;28;20048;-52
2021/11/13 07:31:16;;;;;;;16.50;11.00;;;;;;;3.62;100.00;98209.31;10417176;28;20059;-58
2021/11/13 07:36:20;;;;;;;16.42;11.30;;;;;;;3.61;100.00;98218.25;10411179;28;20049;-60
2021/11/13 07:41:26;;;;;;;19.08;12.05;;;;;;;3.62;100.00;98225.28;10434428;28;20045;-54
2021/11/13 07:46:34;;;;;;;19.95;13.40;;;;;;;3.64;100.00;98230.50;10411940;28;20134;-54
2021/11/13 07:51:37;;;;;;;23.15;13.35;;;;;;;3.63;100.00;98234.16;10435426;28;20099;-57
2021/11/13 07:56:42;;;;;;;19.92;13.30;;;;;;;3.62;100.00;98235.94;10431964;28;20460;-58
2021/11/13 08:01:47;;;;;;;18.70;12.07;;;;;;;3.66;100.00;98233.88;10418058;28;20131;-55
2021/11/13 08:06:50;;;;;;;18.75;12.93;;;;;;;3.69;100.00;98231.84;10428687;28;20053;-54
2021/11/13 08:11:55;;;;;;;20.77;13.23;;;;;;;3.69;100.00;98223.84;10423070;28;20402;-55
2021/11/13 08:16:58;;;;;;;22.83;14.70;;;;;;;3.67;100.00;98225.78;10430116;28;20509;-61
2021/11/13 08:22:01;;;;;;;21.60;13.40;;;;;;;3.68;100.00;98235.47;10424686;28;20544;-65
2021/11/13 08:27:06;;;;;;;20.27;13.40;;;;;;;3.69;100.00;98238.97;10419213;28;20140;-55
2021/11/13 08:32:10;;;;;;;24.77;15.35;;;;;;;3.72;100.00;98240.53;10422648;28;20065;-54
2021/11/13 08:37:13;;;;;;;21.85;13.52;;;;;;;3.73;100.00;98242.22;10423250;28;20052;-60
2021/11/13 08:42:18;;;;;;;20.88;13.18;;;;;;;3.77;100.00;98241.84;10423686;28;20045;-59
2021/11/13 08:47:21;;;;;;;19.63;13.00;;;;;;;3.81;100.00;98242.50;10417042;28;20048;-57
2021/11/13 08:52:24;;;;;;;23.20;13.90;;;;;;;3.82;100.00;98237.03;10429775;28;20053;-57
2021/11/13 08:57:29;;;;;;;21.55;13.25;;;;;;;3.85;100.00;98234.13;10431576;28;20067;-57
2021/11/13 09:02:33;;;;;;;24.13;13.70;;;;;;;3.91;100.00;98232.78;10432748;28;20111;-65
2021/11/13 09:07:38;;;;;;;22.30;13.98;;;;;;;3.98;100.00;98225.97;10429952;28;20041;-54
2021/11/13 09:12:43;;;;;;;20.52;13.30;;;;;;;4.09;100.00;98229.56;10429408;28;20060;-58
2021/11/13 09:17:47;;;;;;;14.02;9.57;;;;;;;4.15;100.00;98226.44;10431159;28;20099;-58
2021/11/13 09:23:02;;;;;;;16.73;10.82;;;;;;;4.22;100.00;98235.59;10406066;28;20139;-60
2021/11/13 09:28:07;;;;;;;14.15;10.65;;;;;;;4.30;100.00;98230.47;10429355;28;20087;-58
2021/11/13 09:33:13;;;;;;;11.02;8.48;;;;;;;4.32;100.00;98225.88;10428307;28;20149;-60
2021/11/13 09:38:16;;;;;;;12.70;9.75;;;;;;;4.38;100.00;98221.03;10426099;28;20079;-57
2021/11/13 09:43:25;;;;;;;13.63;9.48;;;;;;;4.44;100.00;98221.38;10425934;28;20048;-57
2021/11/13 09:48:31;;;;;;;14.23;10.23;;;;;;;4.49;100.00;98223.66;10409982;28;20045;-55
2021/11/13 09:53:35;;;;;;;12.57;9.18;;;;;;;4.55;100.00;98232.97;10424217;28;20072;-59
2021/11/13 09:58:43;;;;;;;12.65;9.48;;;;;;;4.62;100.00;98224.31;10407641;28;20051;-60
2021/11/13 10:03:47;;;;;;;11.23;8.98;;;;;;;4.70;100.00;98225.47;10435693;28;20052;-57
2021/11/13 10:08:55;;;;;;;12.80;8.45;;;;;;;4.74;100.00;98217.09;10409341;28;20102;-64
2021/11/13 10:14:01;;;;;;;13.18;8.93;;;;;;;4.82;100.00;98204.94;10434105;28;20124;-57
2021/11/13 10:19:10;;;;;;;11.90;8.88;;;;;;;4.90;100.00;98203.28;10436563;28;20037;-57
2021/11/13 10:24:20;;;;;;;14.13;9.65;;;;;;;4.99;100.00;98201.66;10432672;28;20045;-55
2021/11/13 10:29:26;;;;;;;11.02;8.27;;;;;;;5.06;100.00;98196.63;10436966;28;20484;-54
2021/11/13 10:34:32;;;;;;;13.27;9.50;;;;;;;5.14;100.00;98194.16;10436567;28;20077;-58
2021/11/13 10:39:38;;;;;;;10.40;8.20;;;;;;;5.21;100.00;98195.34;10436434;28;20087;-63
2021/11/13 10:44:49;;;;;;;9.93;7.82;;;;;;;5.24;100.00;98184.34;10428220;28;20033;-59
2021/11/13 10:49:53;;;;;;;14.68;8.57;;;;;;;5.35;100.00;98171.91;10427205;28;20052;-60
2021/11/13 10:54:56;;;;;;;11.23;8.43;;;;;;;5.41;100.00;98176.72;10437740;28;20045;-61
2021/11/13 11:00:16;;;;;;;10.75;8.63;;;;;;;5.51;100.00;98166.91;10429999;28;20050;-61
2021/11/13 11:05:20;;;;;;;11.93;9.20;;;;;;;5.65;100.00;98175.53;10435675;28;20115;-59
2021/11/13 11:10:30;;;;;;;9.88;8.00;;;;;;;5.66;100.00;98178.06;10435041;28;20138;-61
2021/11/13 11:15:42;;;;;;;10.02;7.95;;;;;;;5.67;100.00;98160.19;10417322;28;20056;-62
2021/11/13 11:20:45;;;;;;;11.30;7.95;;;;;;;5.66;100.00;98155.84;10412163;28;20471;-62
2021/11/13 11:25:48;;;;;;;11.27;8.13;;;;;;;5.75;100.00;98160.34;10431593;28;20060;-60
2021/11/13 11:30:53;;;;;;;11.73;8.98;;;;;;;5.75;100.00;98155.00;10431800;28;20046;-62
2021/11/13 11:35:57;;;;;;;12.38;7.57;;;;;;;5.80;100.00;98146.56;10430055;28;20061;-61
2021/11/13 11:41:01;;;;;;;12.13;8.55;;;;;;;5.86;100.00;98143.38;10413107;28;20114;-62
2021/11/13 11:46:05;;;;;;;11.07;8.20;;;;;;;5.93;100.00;98146.34;10413325;28;20136;-63
2021/11/13 11:51:09;;;;;;;10.82;7.82;;;;;;;5.95;100.00;98141.66;10424578;28;20771;-62
2021/11/13 11:56:12;;;;;;;11.43;7.93;;;;;;;6.01;100.00;98133.97;10432559;28;20135;-62
2021/11/13 12:01:26;;;;;;;10.73;8.90;;;;;;;6.11;100.00;98150.03;10435460;28;20053;-63
2021/11/13 12:06:44;;;;;;;10.57;8.00;;;;;;;6.19;100.00;98156.50;10425475;23;20053;-55
2021/11/13 12:11:49;;;;;;;11.18;7.90;;;;;;;6.26;100.00;98149.63;10436256;28;20052;-54
2021/11/13 12:16:54;;;;;;;11.30;8.00;;;;;;;6.32;100.00;98147.22;10442263;28;20045;-54
2021/11/13 12:21:57;;;;;;;10.60;8.23;;;;;;;6.38;100.00;98148.50;10444118;28;20077;-57
2021/11/13 12:27:03;;;;;;;12.05;8.07;;;;;;;6.44;100.00;98149.75;10446406;28;20393;-51
2021/11/13 12:32:07;;;;;;;11.30;8.38;;;;;;;6.53;100.00;98148.03;10445988;28;20080;-51
2021/11/13 12:37:10;;;;;;;10.35;7.50;;;;;;;6.53;100.00;98137.34;10443024;28;20045;-56
2021/11/13 12:42:23;;;;;;;12.85;8.50;;;;;;;6.59;100.00;98134.09;10439228;28;20099;-54
2021/11/13 12:47:32;;;;;;;10.40;8.20;;;;;;;6.62;100.00;98147.22;10446002;28;20044;-56
2021/11/13 12:52:46;;;;;;;11.18;8.23;;;;;;;6.71;100.00;98146.34;10440714;28;20055;-51
2021/11/13 12:58:03;;;;;;;15.35;8.85;;;;;;;6.79;100.00;98138.44;10438377;28;20069;-51
2021/11/13 13:03:14;;;;;;;11.15;8.10;;;;;;;6.92;100.00;98134.59;10436287;28;20320;-55
2021/11/13 13:08:19;;;;;;;12.55;9.40;;;;;;;7.06;100.00;98144.00;10437575;28;20075;-52
2021/11/13 13:13:22;;;;;;;11.68;8.88;;;;;;;7.29;100.00;98138.31;10440018;28;20045;-52
2021/11/13 13:18:29;;;;;;;11.05;8.77;;;;;;;7.45;100.00;98143.03;10441628;28;20037;-54
2021/11/13 13:23:32;;;;;;;11.45;9.48;;;;;;;7.48;100.00;98132.84;10443963;28;20132;-57
2021/11/13 13:28:35;;;;;;;14.23;9.45;;;;;;;7.49;100.00;98141.72;10447833;28;20115;-52
2021/11/13 13:33:57;;;;;;;12.95;10.07;;;;;;;7.45;100.00;98130.44;10431453;28;20052;-54
2021/11/13 13:39:11;;;;;;;14.68;10.60;;;;;;;7.47;100.00;98133.84;10449361;28;20029;-58
2021/11/13 13:44:19;;;;;;;15.35;11.55;;;;;;;7.45;100.00;98125.09;10447594;28;20064;-57
2021/11/13 13:49:28;;;;;;;14.32;10.48;;;;;;;7.46;100.00;98134.00;10429188;28;20067;-53
2021/11/13 13:54:36;;;;;;;13.02;10.27;;;;;;;7.38;100.00;98143.59;10453677;28;20040;-59
2021/11/13 13:59:42;;;;;;;12.57;10.27;;;;;;;7.30;100.00;98127.44;10429195;28;20116;-55
2021/11/13 14:04:49;;;;;;;14.77;10.18;;;;;;;7.33;100.00;98137.84;10459068;28;20044;-56
2021/11/13 14:10:07;;;;;;;15.20;10.35;;;;;;;7.33;100.00;98139.66;10488850;28;20040;-56
2021/11/13 14:15:12;;;;;;;14.15;10.20;;;;;;;7.32;100.00;98149.56;10486120;28;20048;-57
2021/11/13 14:20:19;;;;;;;13.80;10.27;;;;;;;7.29;100.00;98139.13;10489974;28;20125;-53
2021/11/13 14:25:23;;;;;;;15.27;10.38;;;;;;;7.28;100.00;98145.47;10490275;28;20124;-52
2021/11/13 14:30:36;;;;;;;13.35;10.55;;;;;;;7.24;100.00;98147.63;10486402;28;20048;-53
2021/11/13 14:35:43;;;;;;;12.18;9.65;;;;;;;7.20;100.00;98148.88;10485809;28;20061;-56
2021/11/13 14:40:54;;;;;;;10.90;8.60;;;;;;;7.29;100.00;98144.50;10483974;28;20117;-54
2021/11/13 14:45:59;;;;;;;12.15;8.70;;;;;;;7.31;100.00;98147.88;10461332;28;20148;-52
2021/11/13 14:51:14;;;;;;;13.48;9.93;;;;;;;7.32;100.00;98154.06;10468068;28;20681;-54
2021/11/13 14:56:25;;;;;;;11.48;9.10;;;;;;;7.34;100.00;98160.13;10483924;28;20106;-54
2021/11/13 15:01:31;;;;;;;13.20;9.48;;;;;;;7.27;100.00;98154.50;10483422;28;20068;-53
2021/11/13 15:06:37;;;;;;;11.25;9.52;;;;;;;7.19;100.00;98171.31;10457686;28;20433;-53
2021/11/13 15:11:46;;;;;;;11.77;9.40;;;;;;;7.14;100.00;98170.06;10443947;28;20049;-56
2021/11/13 15:16:50;;;;;;;10.57;8.38;;;;;;;7.06;100.00;98171.63;10443301;28;20044;-52
2021/11/13 15:22:04;;;;;;;11.93;8.48;;;;;;;7.04;100.00;98176.28;10442672;28;20516;-57
2021/11/13 15:27:15;;;;;;;12.55;8.68;;;;;;;6.98;100.00;98184.91;10442594;28;20519;-57
2021/11/13 15:32:27;;;;;;;10.57;8.40;;;;;;;6.88;100.00;98184.09;10443387;28;20132;-57
2021/11/13 15:37:33;;;;;;;9.70;8.27;;;;;;;6.81;100.00;98191.84;10440577;28;20511;-56
2021/11/13 15:42:38;;;;;;;11.57;9.02;;;;;;;6.76;100.00;98189.59;10443208;28;20549;-54
2021/11/13 15:47:42;;;;;;;12.00;9.05;;;;;;;6.75;100.00;98201.31;10441044;28;20124;-59
2021/11/13 15:52:48;;;;;;;12.65;9.63;;;;;;;6.70;100.00;98198.19;10440161;28;20053;-57
2021/11/13 15:57:54;;;;;;;13.50;9.75;;;;;;;6.63;100.00;98191.72;10440404;28;20382;-54
2021/11/13 16:02:57;;;;;;;13.25;9.30;;;;;;;6.55;100.00;98195.13;10424431;28;20087;-58
2021/11/13 16:08:02;;;;;;;15.27;10.70;;;;;;;6.45;100.00;98196.94;10440044;28;20467;-57
2021/11/13 16:13:06;;;;;;;13.77;9.43;;;;;;;6.34;100.00;98197.09;10441821;28;20057;-53
2021/11/13 16:18:11;;;;;;;12.57;8.75;;;;;;;6.29;100.00;98202.84;10441585;28;20624;-56
2021/11/13 16:23:18;;;;;;;14.23;10.35;;;;;;;6.16;100.00;98212.00;10424756;28;20041;-56
2021/11/13 16:28:25;;;;;;;12.93;9.45;;;;;;;6.07;100.00;98223.50;10440485;28;20413;-57
2021/11/13 16:33:29;;;;;;;13.80;10.00;;;;;;;6.00;100.00;98215.19;10441895;28;20063;-57
2021/11/13 16:38:35;;;;;;;13.70;10.30;;;;;;;5.90;100.00;98227.66;10438319;28;20041;-55
2021/11/13 16:43:41;;;;;;;15.32;10.65;;;;;;;5.78;100.00;98226.91;10438642;28;20033;-55
2021/11/13 16:48:47;;;;;;;13.70;9.63;;;;;;;5.66;100.00;98236.00;10440364;28;20128;-58
2021/11/13 16:53:52;;;;;;;14.30;9.70;;;;;;;5.55;100.00;98251.16;10435698;28;20041;-56
2021/11/13 16:58:57;;;;;;;13.77;10.05;;;;;;;5.46;100.00;98249.31;10437682;28;20029;-56
2021/11/13 17:04:03;;;;;;;14.52;10.95;;;;;;;5.36;100.00;98249.25;10441130;28;20041;-54
2021/11/13 17:09:10;;;;;;;16.23;10.50;;;;;;;5.35;100.00;98254.72;10441165;28;20068;-55
2021/11/13 17:14:13;;;;;;;15.07;10.52;;;;;;;5.33;100.00;98262.03;10435176;28;20045;-56
2021/11/13 17:19:16;;;;;;;14.63;10.80;;;;;;;5.25;100.00;98270.69;10442025;28;20049;-58
2021/11/13 17:24:20;;;;;;;15.63;11.23;;;;;;;5.27;100.00;98263.41;10443011;28;20075;-58
2021/11/13 17:29:24;;;;;;;14.93;10.55;;;;;;;5.25;100.00;98274.19;10448215;28;20041;-57
2021/11/13 17:34:27;;;;;;;13.20;9.68;;;;;;;5.19;100.00;98287.22;10439498;28;20115;-56
2021/11/13 17:39:41;;;;;;;15.50;10.25;;;;;;;5.19;100.00;98292.56;10435572;28;20045;-57
2021/11/13 17:44:46;;;;;;;15.68;10.75;;;;;;;5.18;100.00;98301.56;10437147;28;20063;-58
2021/11/13 17:49:49;;;;;;;14.85;10.18;;;;;;;5.21;100.00;98296.81;10439671;28;20049;-58
2021/11/13 17:54:55;;;;;;;15.57;11.13;;;;;;;5.24;100.00;98295.69;10435733;28;20037;-55
2021/11/13 18:00:00;;;;;;;19.17;12.45;;;;;;;5.24;100.00;98299.22;10439362;28;20305;-55
2021/11/13 18:05:14;;;;;;;18.30;12.48;;;;;;;5.24;100.00;98296.53;10444793;23;20045;-56
2021/11/13 18:10:23;;;;;;;18.17;12.25;;;;;;;5.20;100.00;98289.78;10421740;28;20045;-59
2021/11/13 18:15:26;;;;;;;16.83;12.48;;;;;;;5.20;100.00;98289.78;10423794;28;20135;-60
2021/11/13 18:20:30;;;;;;;21.00;13.90;;;;;;;5.18;100.00;98289.06;10456598;28;20492;-60
2021/11/13 18:25:37;;;;;;;16.92;12.40;;;;;;;5.13;100.00;98291.25;10451398;28;20123;-59
2021/11/13 18:30:41;;;;;;;17.45;12.55;;;;;;;5.07;100.00;98294.47;10426522;28;20075;-59
2021/11/13 18:35:45;;;;;;;25.63;14.15;;;;;;;5.02;100.00;98302.00;10445461;28;20504;-59
2021/11/13 18:40:52;;;;;;;20.95;15.20;;;;;;;5.00;100.00;98294.13;10444888;28;20048;-61
2021/11/13 18:45:56;;;;;;;21.77;14.82;;;;;;;4.93;100.00;98299.13;10446136;28;20393;-60
2021/11/13 18:51:05;;;;;;;21.25;14.05;;;;;;;4.91;100.00;98306.41;10444125;28;20045;-59
2021/11/13 18:56:12;;;;;;;28.83;21.23;;;;;;;4.88;100.00;98321.84;10444952;28;20413;-62
2021/11/13 19:01:17;;;;;;;39.47;27.73;;;;;;;4.86;100.00;98318.47;10445705;28;20047;-60
2021/11/13 19:06:20;;;;;;;28.55;20.27;;;;;;;4.84;100.00;98321.28;10433317;28;20044;-61
2021/11/13 19:11:26;;;;;;;23.02;16.02;;;;;;;4.85;100.00;98325.63;10456170;28;20037;-60
2021/11/13 19:16:30;;;;;;;23.15;15.60;;;;;;;4.85;100.00;98328.31;10443084;28;20055;-61
2021/11/13 19:21:33;;;;;;;22.45;15.55;;;;;;;4.86;100.00;98338.00;10462465;28;20127;-59
2021/11/13 19:26:39;;;;;;;20.63;15.15;;;;;;;4.90;100.00;98333.25;10470370;28;20047;-58
2021/11/13 19:31:42;;;;;;;20.75;15.13;;;;;;;4.92;100.00;98334.81;10475086;28;20039;-57
2021/11/13 19:36:44;;;;;;;19.55;14.20;;;;;;;4.92;100.00;98342.00;10476459;28;20167;-60
2021/11/13 19:41:49;;;;;;;19.75;14.68;;;;;;;4.93;100.00;98344.53;10478943;28;20063;-59
2021/11/13 19:46:54;;;;;;;19.25;14.45;;;;;;;4.96;100.00;98347.91;10469994;28;20037;-57
2021/11/13 19:51:58;;;;;;;21.42;14.05;;;;;;;4.99;100.00;98342.34;10467900;28;20499;-55
2021/11/13 19:57:02;;;;;;;21.00;14.65;;;;;;;5.01;100.00;98345.69;10470520;28;20060;-55
2021/11/13 20:02:05;;;;;;;19.92;14.30;;;;;;;5.02;100.00;98355.41;10471671;28;20080;-60
2021/11/13 20:07:10;;;;;;;20.52;14.45;;;;;;;5.04;100.00;98358.78;10476927;28;20049;-59
2021/11/13 20:12:14;;;;;;;20.13;14.43;;;;;;;5.06;100.00;98362.19;10481890;28;20123;-58
2021/11/13 20:17:18;;;;;;;19.10;13.85;;;;;;;5.07;100.00;98371.91;10471619;28;20041;-63
2021/11/13 20:22:21;;;;;;;18.75;13.70;;;;;;;5.10;100.00;98379.66;10469623;28;20079;-60
2021/11/13 20:27:26;;;;;;;18.63;14.05;;;;;;;5.12;100.00;98374.19;10455585;28;20556;-57
2021/11/13 20:32:29;;;;;;;18.02;13.40;;;;;;;5.14;100.00;98378.41;10451514;28;20037;-58
2021/11/13 20:37:34;;;;;;;18.73;12.68;;;;;;;5.16;100.00;98379.13;10472601;28;20045;-56
2021/11/13 20:42:41;;;;;;;18.08;12.77;;;;;;;5.16;100.00;98394.34;10455829;28;20055;-56
2021/11/13 20:47:44;;;;;;;18.50;13.27;;;;;;;5.18;100.00;98389.69;10474150;28;20067;-54
2021/11/13 20:52:49;;;;;;;17.70;12.65;;;;;;;5.20;100.00;98396.63;10471437;28;20079;-56
2021/11/13 20:57:53;;;;;;;17.10;12.60;;;;;;;5.23;100.00;98407.03;10466894;28;20055;-59
2021/11/13 21:02:57;;;;;;;17.33;12.32;;;;;;;5.24;100.00;98406.03;10478487;28;20048;-58
2021/11/13 21:08:00;;;;;;;16.85;12.57;;;;;;;5.29;100.00;98399.47;10427661;28;20049;-56
2021/11/13 21:13:13;;;;;;;16.58;12.15;;;;;;;5.32;100.00;98405.41;10428892;28;20567;-55
2021/11/13 21:18:18;;;;;;;16.80;12.80;;;;;;;5.36;100.00;98406.00;10445712;28;20587;-54
2021/11/13 21:23:23;;;;;;;15.77;12.45;;;;;;;5.39;100.00;98405.75;10419326;28;20423;-57
2021/11/13 21:28:28;;;;;;;14.77;11.98;;;;;;;5.42;100.00;98409.97;10419593;28;20432;-54
2021/11/13 21:33:33;;;;;;;19.70;12.30;;;;;;;5.45;100.00;98415.06;10438468;28;20056;-56
2021/11/13 21:38:36;;;;;;;17.33;13.05;;;;;;;5.47;100.00;98418.47;10450118;28;20102;-59
2021/11/13 21:43:41;;;;;;;18.85;12.95;;;;;;;5.50;100.00;98421.72;10439771;28;20505;-61
2021/11/13 21:48:44;;;;;;;19.38;13.68;;;;;;;5.51;100.00;98420.75;10444203;28;20154;-61
2021/11/13 21:53:50;;;;;;;18.98;13.48;;;;;;;5.54;100.00;98422.31;10458449;28;20052;-58
2021/11/13 21:58:56;;;;;;;16.75;13.10;;;;;;;5.55;100.00;98427.53;10449698;28;20083;-59
2021/11/13 22:03:59;;;;;;;15.98;12.52;;;;;;;5.57;100.00;98434.59;10450691;28;20107;-59
2021/11/13 22:09:04;;;;;;;18.30;13.30;;;;;;;5.57;100.00;98430.06;10452523;28;20045;-57
2021/11/13 22:14:12;;;;;;;19.55;14.20;;;;;;;5.57;100.00;98434.59;10450324;28;20044;-60
2021/11/13 22:19:16;;;;;;;17.65;13.65;;;;;;;5.59;100.00;98437.94;10449968;28;20072;-56
2021/11/13 22:24:20;;;;;;;16.00;12.77;;;;;;;5.59;100.00;98432.59;10451715;28;20045;-61
2021/11/13 22:29:24;;;;;;;16.58;12.60;;;;;;;5.62;100.00;98435.03;10448363;28;20039;-57
2021/11/13 22:34:30;;;;;;;17.00;12.57;;;;;;;5.63;100.00;98437.59;10445420;28;20053;-59
2021/11/13 22:39:33;;;;;;;17.23;13.25;;;;;;;5.65;100.00;98448.97;10449705;28;20049;-59
2021/11/13 22:44:38;;;;;;;18.30;13.20;;;;;;;5.66;100.00;98449.84;10447727;28;20575;-60
2021/11/13 22:49:41;;;;;;;16.77;13.18;;;;;;;5.68;100.00;98459.41;10446333;28;20516;-62
2021/11/13 22:54:44;;;;;;;17.90;13.48;;;;;;;5.70;100.00;98451.28;10445429;28;20511;-57
2021/11/13 22:59:49;;;;;;;18.08;13.02;;;;;;;5.72;100.00;98454.66;10447723;28;20094;-61
2021/11/13 23:04:52;;;;;;;17.55;12.98;;;;;;;5.75;100.00;98453.56;10425674;28;20417;-57
2021/11/13 23:09:55;;;;;;;16.55;12.63;;;;;;;5.77;100.00;98452.44;10452579;28;20060;-58
2021/11/13 23:15:00;;;;;;;16.63;12.50;;;;;;;5.80;100.00;98451.34;10450243;28;20079;-58